sensor_id;sensor_type;location;lat;lon;timestamp;pressure;altitude;pressure_sealevel;temperature;humidity
57250;BME280;43102;52.014;-0.680;2023-07-31T00:00:00;99856;;;19.75;69.55
57250;BME280;43102;52.014;-0.680;2023-07-31T00:01:00;99856;;;19.75;69.55
57250;BME280;43102;52.014;-0.680;2023-07-31T00:02:00;99856;;;19.75;69.55
57250;BME280;43102;52.014;-0.680;2023-07-31T00:03:00;99856;;;19.75;69.55
57250;BME280;43102;52.014;-0.680;2023-07-31T00:04:00;99856;;;19.75;69.55
57250;BME280;43102;52.014;-0.680;2023-07-31T00:05:00;99856;;;19.75;69.55
57250;BME280;43102;52.014;-0.680;2023-07-31T00:06:00;99846;;;19.75;69.63
57250;BME280;43102;52.014;-0.680;2023-07-31T00:07:00;99846;;;19.75;69.63
57250;BME280;43102;52.014;-0.680;2023-07-31T00:08:00;99846;;;19.75;69.63
57250;BME280;43102;52.014;-0.680;2023-07-31T00:09:00;99846;;;19.75;69.63
57250;BME280;43102;52.014;-0.680;2023-07-31T00:10:00;99845;;;19.74;69.87
57250;BME280;43102;52.014;-0.680;2023-07-31T00:11:00;99845;;;19.74;69.87
57250;BME280;43102;52.014;-0.680;2023-07-31T00:12:00;99845;;;19.74;69.87
57250;BME280;43102;52.014;-0.680;2023-07-31T00:13:00;99845;;;19.74;69.87
57250;BME280;43102;52.014;-0.680;2023-07-31T00:14:00;99845;;;19.74;69.87
57250;BME280;43102;52.014;-0.680;2023-07-31T00:15:00;99835;;;19.76;69.58
57250;BME280;43102;52.014;-0.680;2023-07-31T00:16:00;99835;;;19.76;69.58
57250;BME280;43102;52.014;-0.680;2023-07-31T00:17:00;99835;;;19.76;69.58
57250;BME280;43102;52.014;-0.680;2023-07-31T00:18:00;99835;;;19.76;69.58
57250;BME280;43102;52.014;-0.680;2023-07-31T00:19:00;99835;;;19.76;69.58
57250;BME280;43102;52.014;-0.680;2023-07-31T00:20:00;99835;;;19.76;69.58
57250;BME280;43102;52.014;-0.680;2023-07-31T00:21:00;99830;;;19.83;69.56
57250;BME280;43102;52.014;-0.680;2023-07-31T00:22:00;99830;;;19.83;69.56
57250;BME280;43102;52.014;-0.680;2023-07-31T00:23:00;99830;;;19.83;69.56
57250;BME280;43102;52.014;-0.680;2023-07-31T00:24:00;99830;;;19.83;69.56
57250;BME280;43102;52.014;-0.680;2023-07-31T00:25:00;99830;;;19.83;69.56
57250;BME280;43102;52.014;-0.680;2023-07-31T00:26:00;99825;;;19.89;69.19
57250;BME280;43102;52.014;-0.680;2023-07-31T00:27:00;99825;;;19.89;69.19
57250;BME280;43102;52.014;-0.680;2023-07-31T00:28:00;99825;;;19.89;69.19
57250;BME280;43102;52.014;-0.680;2023-07-31T00:29:00;99825;;;19.89;69.19
57250;BME280;43102;52.014;-0.680;2023-07-31T00:30:00;99825;;;19.89;69.19
57250;BME280;43102;52.014;-0.680;2023-07-31T00:31:00;99821;;;19.83;69.84
57250;BME280;43102;52.014;-0.680;2023-07-31T00:32:00;99821;;;19.83;69.84
57250;BME280;43102;52.014;-0.680;2023-07-31T00:33:00;99821;;;19.83;69.84
57250;BME280;43102;52.014;-0.680;2023-07-31T00:34:00;99821;;;19.83;69.84
57250;BME280;43102;52.014;-0.680;2023-07-31T00:35:00;99821;;;19.83;69.84
57250;BME280;43102;52.014;-0.680;2023-07-31T00:36:00;99810;;;19.80;70.05
57250;BME280;43102;52.014;-0.680;2023-07-31T00:37:00;99810;;;19.80;70.05
57250;BME280;43102;52.014;-0.680;2023-07-31T00:38:00;99810;;;19.80;70.05
57250;BME280;43102;52.014;-0.680;2023-07-31T00:39:00;99810;;;19.80;70.05
57250;BME280;43102;52.014;-0.680;2023-07-31T00:40:00;99810;;;19.80;70.05
57250;BME280;43102;52.014;-0.680;2023-07-31T00:41:00;99797;;;19.87;69.81
57250;BME280;43102;52.014;-0.680;2023-07-31T00:42:00;99797;;;19.87;69.81
57250;BME280;43102;52.014;-0.680;2023-07-31T00:43:00;99797;;;19.87;69.81
57250;BME280;43102;52.014;-0.680;2023-07-31T00:44:00;99797;;;19.87;69.81
57250;BME280;43102;52.014;-0.680;2023-07-31T00:45:00;99797;;;19.87;69.81
57250;BME280;43102;52.014;-0.680;2023-07-31T00:46:00;99782;;;19.89;69.88
57250;BME280;43102;52.014;-0.680;2023-07-31T00:47:00;99782;;;19.89;69.88
57250;BME280;43102;52.014;-0.680;2023-07-31T00:48:00;99782;;;19.89;69.88
57250;BME280;43102;52.014;-0.680;2023-07-31T00:49:00;99782;;;19.89;69.88
57250;BME280;43102;52.014;-0.680;2023-07-31T00:50:00;99782;;;19.89;69.88
57250;BME280;43102;52.014;-0.680;2023-07-31T00:51:00;99781;;;19.90;70.25
57250;BME280;43102;52.014;-0.680;2023-07-31T00:52:00;99781;;;19.90;70.25
57250;BME280;43102;52.014;-0.680;2023-07-31T00:53:00;99781;;;19.90;70.25
57250;BME280;43102;52.014;-0.680;2023-07-31T00:54:00;99781;;;19.90;70.25
57250;BME280;43102;52.014;-0.680;2023-07-31T00:55:00;99781;;;19.90;70.25
57250;BME280;43102;52.014;-0.680;2023-07-31T00:56:00;99778;;;19.83;70.52
57250;BME280;43102;52.014;-0.680;2023-07-31T00:57:00;99778;;;19.83;70.52
57250;BME280;43102;52.014;-0.680;2023-07-31T00:58:00;99778;;;19.83;70.52
57250;BME280;43102;52.014;-0.680;2023-07-31T00:59:00;99778;;;19.83;70.52
57250;BME280;43102;52.014;-0.680;2023-07-31T01:00:00;99778;;;19.83;70.52
57250;BME280;43102;52.014;-0.680;2023-07-31T01:01:00;99763;;;19.89;70.21
57250;BME280;43102;52.014;-0.680;2023-07-31T01:02:00;99763;;;19.89;70.21
57250;BME280;43102;52.014;-0.680;2023-07-31T01:03:00;99763;;;19.89;70.21
57250;BME280;43102;52.014;-0.680;2023-07-31T01:04:00;99763;;;19.89;70.21
57250;BME280;43102;52.014;-0.680;2023-07-31T01:05:01;99763;;;19.89;70.21
57250;BME280;43102;52.014;-0.680;2023-07-31T01:08:04;99752;;;19.93;69.88
57250;BME280;43102;52.014;-0.680;2023-07-31T01:09:02;99752;;;19.93;69.88
57250;BME280;43102;52.014;-0.680;2023-07-31T01:10:16;99752;;;19.93;69.88
57250;BME280;43102;52.014;-0.680;2023-07-31T01:11:02;99749;;;19.93;70.54
57250;BME280;43102;52.014;-0.680;2023-07-31T01:12:01;99749;;;19.93;70.54
57250;BME280;43102;52.014;-0.680;2023-07-31T01:13:00;99749;;;19.93;70.54
57250;BME280;43102;52.014;-0.680;2023-07-31T01:14:00;99749;;;19.93;70.54
57250;BME280;43102;52.014;-0.680;2023-07-31T01:15:04;99749;;;19.93;70.54
57250;BME280;43102;52.014;-0.680;2023-07-31T01:16:00;99746;;;19.97;70.79
57250;BME280;43102;52.014;-0.680;2023-07-31T01:17:00;99746;;;19.97;70.79
57250;BME280;43102;52.014;-0.680;2023-07-31T01:18:00;99746;;;19.97;70.79
57250;BME280;43102;52.014;-0.680;2023-07-31T01:19:00;99746;;;19.97;70.79
57250;BME280;43102;52.014;-0.680;2023-07-31T01:20:01;99746;;;19.97;70.79
57250;BME280;43102;52.014;-0.680;2023-07-31T01:21:03;99736;;;19.99;70.07
57250;BME280;43102;52.014;-0.680;2023-07-31T01:22:21;99736;;;19.99;70.07
57250;BME280;43102;52.014;-0.680;2023-07-31T01:23:08;99736;;;19.99;70.07
57250;BME280;43102;52.014;-0.680;2023-07-31T01:27:17;99735;;;19.94;70.69
57250;BME280;43102;52.014;-0.680;2023-07-31T01:28:02;99735;;;19.94;70.69
57250;BME280;43102;52.014;-0.680;2023-07-31T01:29:01;99735;;;19.94;70.69
57250;BME280;43102;52.014;-0.680;2023-07-31T01:30:03;99735;;;19.94;70.69
57250;BME280;43102;52.014;-0.680;2023-07-31T01:31:00;99726;;;20.02;70.33
57250;BME280;43102;52.014;-0.680;2023-07-31T01:32:01;99726;;;20.02;70.33
57250;BME280;43102;52.014;-0.680;2023-07-31T01:33:00;99726;;;20.02;70.33
57250;BME280;43102;52.014;-0.680;2023-07-31T01:34:00;99726;;;20.02;70.33
57250;BME280;43102;52.014;-0.680;2023-07-31T01:35:00;99726;;;20.02;70.33
57250;BME280;43102;52.014;-0.680;2023-07-31T01:36:00;99716;;;19.99;70.56
57250;BME280;43102;52.014;-0.680;2023-07-31T01:37:00;99716;;;19.99;70.56
57250;BME280;43102;52.014;-0.680;2023-07-31T01:38:00;99716;;;19.99;70.56
57250;BME280;43102;52.014;-0.680;2023-07-31T01:39:00;99716;;;19.99;70.56
57250;BME280;43102;52.014;-0.680;2023-07-31T01:40:00;99716;;;19.99;70.56
57250;BME280;43102;52.014;-0.680;2023-07-31T01:41:00;99707;;;19.99;71.05
57250;BME280;43102;52.014;-0.680;2023-07-31T01:42:00;99707;;;19.99;71.05
57250;BME280;43102;52.014;-0.680;2023-07-31T01:43:00;99707;;;19.99;71.05
57250;BME280;43102;52.014;-0.680;2023-07-31T01:44:00;99707;;;19.99;71.05
57250;BME280;43102;52.014;-0.680;2023-07-31T01:45:00;99707;;;19.99;71.05
57250;BME280;43102;52.014;-0.680;2023-07-31T01:46:00;99705;;;19.93;71.54
57250;BME280;43102;52.014;-0.680;2023-07-31T01:47:00;99705;;;19.93;71.54
57250;BME280;43102;52.014;-0.680;2023-07-31T01:48:00;99705;;;19.93;71.54
57250;BME280;43102;52.014;-0.680;2023-07-31T01:49:00;99705;;;19.93;71.54
57250;BME280;43102;52.014;-0.680;2023-07-31T01:50:00;99705;;;19.93;71.54
57250;BME280;43102;52.014;-0.680;2023-07-31T01:51:00;99700;;;19.91;71.94
57250;BME280;43102;52.014;-0.680;2023-07-31T01:52:00;99700;;;19.91;71.94
57250;BME280;43102;52.014;-0.680;2023-07-31T01:53:00;99700;;;19.91;71.94
57250;BME280;43102;52.014;-0.680;2023-07-31T01:54:00;99700;;;19.91;71.94
57250;BME280;43102;52.014;-0.680;2023-07-31T01:55:00;99700;;;19.91;71.94
57250;BME280;43102;52.014;-0.680;2023-07-31T01:56:00;99698;;;19.97;71.71
57250;BME280;43102;52.014;-0.680;2023-07-31T01:57:00;99698;;;19.97;71.71
57250;BME280;43102;52.014;-0.680;2023-07-31T01:58:00;99698;;;19.97;71.71
57250;BME280;43102;52.014;-0.680;2023-07-31T01:59:00;99698;;;19.97;71.71
57250;BME280;43102;52.014;-0.680;2023-07-31T02:00:00;99698;;;19.97;71.71
57250;BME280;43102;52.014;-0.680;2023-07-31T02:01:00;99693;;;19.99;71.71
57250;BME280;43102;52.014;-0.680;2023-07-31T02:02:00;99693;;;19.99;71.71
57250;BME280;43102;52.014;-0.680;2023-07-31T02:03:00;99693;;;19.99;71.71
57250;BME280;43102;52.014;-0.680;2023-07-31T02:04:00;99693;;;19.99;71.71
57250;BME280;43102;52.014;-0.680;2023-07-31T02:05:00;99693;;;19.99;71.71
57250;BME280;43102;52.014;-0.680;2023-07-31T02:06:00;99687;;;20.06;71.32
57250;BME280;43102;52.014;-0.680;2023-07-31T02:07:00;99687;;;20.06;71.32
57250;BME280;43102;52.014;-0.680;2023-07-31T02:08:00;99687;;;20.06;71.32
57250;BME280;43102;52.014;-0.680;2023-07-31T02:09:00;99687;;;20.06;71.32
57250;BME280;43102;52.014;-0.680;2023-07-31T02:10:00;99687;;;20.06;71.32
57250;BME280;43102;52.014;-0.680;2023-07-31T02:11:00;99684;;;20.04;71.99
57250;BME280;43102;52.014;-0.680;2023-07-31T02:12:00;99684;;;20.04;71.99
57250;BME280;43102;52.014;-0.680;2023-07-31T02:13:00;99684;;;20.04;71.99
57250;BME280;43102;52.014;-0.680;2023-07-31T02:14:00;99684;;;20.04;71.99
57250;BME280;43102;52.014;-0.680;2023-07-31T02:15:00;99684;;;20.04;71.99
57250;BME280;43102;52.014;-0.680;2023-07-31T02:16:00;99685;;;20.09;71.61
57250;BME280;43102;52.014;-0.680;2023-07-31T02:17:00;99685;;;20.09;71.61
57250;BME280;43102;52.014;-0.680;2023-07-31T02:18:00;99685;;;20.09;71.61
57250;BME280;43102;52.014;-0.680;2023-07-31T02:19:00;99685;;;20.09;71.61
57250;BME280;43102;52.014;-0.680;2023-07-31T02:20:00;99685;;;20.09;71.61
57250;BME280;43102;52.014;-0.680;2023-07-31T02:21:00;99671;;;20.13;71.54
57250;BME280;43102;52.014;-0.680;2023-07-31T02:22:00;99671;;;20.13;71.54
57250;BME280;43102;52.014;-0.680;2023-07-31T02:23:00;99671;;;20.13;71.54
57250;BME280;43102;52.014;-0.680;2023-07-31T02:24:00;99671;;;20.13;71.54
57250;BME280;43102;52.014;-0.680;2023-07-31T02:25:00;99671;;;20.13;71.54
57250;BME280;43102;52.014;-0.680;2023-07-31T02:26:00;99669;;;20.19;71.33
57250;BME280;43102;52.014;-0.680;2023-07-31T02:27:00;99669;;;20.19;71.33
57250;BME280;43102;52.014;-0.680;2023-07-31T02:28:00;99669;;;20.19;71.33
57250;BME280;43102;52.014;-0.680;2023-07-31T02:29:00;99669;;;20.19;71.33
57250;BME280;43102;52.014;-0.680;2023-07-31T02:30:00;99669;;;20.19;71.33
57250;BME280;43102;52.014;-0.680;2023-07-31T02:31:00;99658;;;20.16;71.48
57250;BME280;43102;52.014;-0.680;2023-07-31T02:32:00;99658;;;20.16;71.48
57250;BME280;43102;52.014;-0.680;2023-07-31T02:33:00;99658;;;20.16;71.48
57250;BME280;43102;52.014;-0.680;2023-07-31T02:34:00;99658;;;20.16;71.48
57250;BME280;43102;52.014;-0.680;2023-07-31T02:35:00;99658;;;20.16;71.48
57250;BME280;43102;52.014;-0.680;2023-07-31T02:36:00;99651;;;20.20;71.71
57250;BME280;43102;52.014;-0.680;2023-07-31T02:37:00;99651;;;20.20;71.71
57250;BME280;43102;52.014;-0.680;2023-07-31T02:38:00;99651;;;20.20;71.71
57250;BME280;43102;52.014;-0.680;2023-07-31T02:39:00;99651;;;20.20;71.71
57250;BME280;43102;52.014;-0.680;2023-07-31T02:40:00;99651;;;20.20;71.71
57250;BME280;43102;52.014;-0.680;2023-07-31T02:41:00;99648;;;20.18;71.89
57250;BME280;43102;52.014;-0.680;2023-07-31T02:42:00;99648;;;20.18;71.89
57250;BME280;43102;52.014;-0.680;2023-07-31T02:43:00;99648;;;20.18;71.89
57250;BME280;43102;52.014;-0.680;2023-07-31T02:44:00;99648;;;20.18;71.89
57250;BME280;43102;52.014;-0.680;2023-07-31T02:45:00;99648;;;20.18;71.89
57250;BME280;43102;52.014;-0.680;2023-07-31T02:46:00;99652;;;20.28;71.10
57250;BME280;43102;52.014;-0.680;2023-07-31T02:47:00;99652;;;20.28;71.10
57250;BME280;43102;52.014;-0.680;2023-07-31T02:48:00;99652;;;20.28;71.10
57250;BME280;43102;52.014;-0.680;2023-07-31T02:49:00;99652;;;20.28;71.10
57250;BME280;43102;52.014;-0.680;2023-07-31T02:50:01;99652;;;20.28;71.10
57250;BME280;43102;52.014;-0.680;2023-07-31T02:51:00;99659;;;20.29;71.62
57250;BME280;43102;52.014;-0.680;2023-07-31T02:52:00;99659;;;20.29;71.62
57250;BME280;43102;52.014;-0.680;2023-07-31T02:53:00;99659;;;20.29;71.62
57250;BME280;43102;52.014;-0.680;2023-07-31T02:54:00;99659;;;20.29;71.62
57250;BME280;43102;52.014;-0.680;2023-07-31T02:55:00;99659;;;20.29;71.62
57250;BME280;43102;52.014;-0.680;2023-07-31T02:56:00;99654;;;20.30;71.17
57250;BME280;43102;52.014;-0.680;2023-07-31T02:57:00;99654;;;20.30;71.17
57250;BME280;43102;52.014;-0.680;2023-07-31T02:58:00;99654;;;20.30;71.17
57250;BME280;43102;52.014;-0.680;2023-07-31T02:59:00;99654;;;20.30;71.17
57250;BME280;43102;52.014;-0.680;2023-07-31T03:00:00;99654;;;20.30;71.17
57250;BME280;43102;52.014;-0.680;2023-07-31T03:01:00;99643;;;20.27;71.32
57250;BME280;43102;52.014;-0.680;2023-07-31T03:02:00;99643;;;20.27;71.32
57250;BME280;43102;52.014;-0.680;2023-07-31T03:03:00;99643;;;20.27;71.32
57250;BME280;43102;52.014;-0.680;2023-07-31T03:04:00;99643;;;20.27;71.32
57250;BME280;43102;52.014;-0.680;2023-07-31T03:05:00;99643;;;20.27;71.32
57250;BME280;43102;52.014;-0.680;2023-07-31T03:06:00;99642;;;20.28;71.29
57250;BME280;43102;52.014;-0.680;2023-07-31T03:07:00;99642;;;20.28;71.29
57250;BME280;43102;52.014;-0.680;2023-07-31T03:08:00;99642;;;20.28;71.29
57250;BME280;43102;52.014;-0.680;2023-07-31T03:09:00;99642;;;20.28;71.29
57250;BME280;43102;52.014;-0.680;2023-07-31T03:10:00;99642;;;20.28;71.29
57250;BME280;43102;52.014;-0.680;2023-07-31T03:11:00;99640;;;20.23;72.11
57250;BME280;43102;52.014;-0.680;2023-07-31T03:12:00;99640;;;20.23;72.11
57250;BME280;43102;52.014;-0.680;2023-07-31T03:13:00;99640;;;20.23;72.11
57250;BME280;43102;52.014;-0.680;2023-07-31T03:14:00;99640;;;20.23;72.11
57250;BME280;43102;52.014;-0.680;2023-07-31T03:15:00;99640;;;20.23;72.11
57250;BME280;43102;52.014;-0.680;2023-07-31T03:16:00;99634;;;20.28;71.74
57250;BME280;43102;52.014;-0.680;2023-07-31T03:17:00;99634;;;20.28;71.74
57250;BME280;43102;52.014;-0.680;2023-07-31T03:18:00;99634;;;20.28;71.74
57250;BME280;43102;52.014;-0.680;2023-07-31T03:19:00;99634;;;20.28;71.74
57250;BME280;43102;52.014;-0.680;2023-07-31T03:20:00;99634;;;20.28;71.74
57250;BME280;43102;52.014;-0.680;2023-07-31T03:21:00;99635;;;20.30;71.68
57250;BME280;43102;52.014;-0.680;2023-07-31T03:22:00;99635;;;20.30;71.68
57250;BME280;43102;52.014;-0.680;2023-07-31T03:23:00;99635;;;20.30;71.68
57250;BME280;43102;52.014;-0.680;2023-07-31T03:24:00;99635;;;20.30;71.68
57250;BME280;43102;52.014;-0.680;2023-07-31T03:25:01;99635;;;20.30;71.68
57250;BME280;43102;52.014;-0.680;2023-07-31T03:26:01;99634;;;20.33;71.84
57250;BME280;43102;52.014;-0.680;2023-07-31T03:27:00;99634;;;20.33;71.84
57250;BME280;43102;52.014;-0.680;2023-07-31T03:28:00;99634;;;20.33;71.84
57250;BME280;43102;52.014;-0.680;2023-07-31T03:29:00;99634;;;20.33;71.84
57250;BME280;43102;52.014;-0.680;2023-07-31T03:30:00;99634;;;20.33;71.84
57250;BME280;43102;52.014;-0.680;2023-07-31T03:31:00;99638;;;20.29;72.02
57250;BME280;43102;52.014;-0.680;2023-07-31T03:32:00;99638;;;20.29;72.02
57250;BME280;43102;52.014;-0.680;2023-07-31T03:33:00;99638;;;20.29;72.02
57250;BME280;43102;52.014;-0.680;2023-07-31T03:34:00;99638;;;20.29;72.02
57250;BME280;43102;52.014;-0.680;2023-07-31T03:35:00;99638;;;20.29;72.02
57250;BME280;43102;52.014;-0.680;2023-07-31T03:36:00;99641;;;20.34;71.62
57250;BME280;43102;52.014;-0.680;2023-07-31T03:37:00;99641;;;20.34;71.62
57250;BME280;43102;52.014;-0.680;2023-07-31T03:38:00;99641;;;20.34;71.62
57250;BME280;43102;52.014;-0.680;2023-07-31T03:39:00;99641;;;20.34;71.62
57250;BME280;43102;52.014;-0.680;2023-07-31T03:40:00;99641;;;20.34;71.62
57250;BME280;43102;52.014;-0.680;2023-07-31T03:41:00;99631;;;20.33;71.92
57250;BME280;43102;52.014;-0.680;2023-07-31T03:42:00;99631;;;20.33;71.92
57250;BME280;43102;52.014;-0.680;2023-07-31T03:43:00;99631;;;20.33;71.92
57250;BME280;43102;52.014;-0.680;2023-07-31T03:44:00;99631;;;20.33;71.92
57250;BME280;43102;52.014;-0.680;2023-07-31T03:45:00;99631;;;20.33;71.92
57250;BME280;43102;52.014;-0.680;2023-07-31T03:46:00;99637;;;20.32;72.39
57250;BME280;43102;52.014;-0.680;2023-07-31T03:47:00;99637;;;20.32;72.39
57250;BME280;43102;52.014;-0.680;2023-07-31T03:48:00;99637;;;20.32;72.39
57250;BME280;43102;52.014;-0.680;2023-07-31T03:49:00;99637;;;20.32;72.39
57250;BME280;43102;52.014;-0.680;2023-07-31T03:50:00;99637;;;20.32;72.39
57250;BME280;43102;52.014;-0.680;2023-07-31T03:51:00;99637;;;20.31;72.06
57250;BME280;43102;52.014;-0.680;2023-07-31T03:52:00;99637;;;20.31;72.06
57250;BME280;43102;52.014;-0.680;2023-07-31T03:53:00;99637;;;20.31;72.06
57250;BME280;43102;52.014;-0.680;2023-07-31T03:54:00;99637;;;20.31;72.06
57250;BME280;43102;52.014;-0.680;2023-07-31T03:55:00;99637;;;20.31;72.06
57250;BME280;43102;52.014;-0.680;2023-07-31T03:56:00;99630;;;20.34;71.94
57250;BME280;43102;52.014;-0.680;2023-07-31T03:57:00;99630;;;20.34;71.94
57250;BME280;43102;52.014;-0.680;2023-07-31T03:58:00;99630;;;20.34;71.94
57250;BME280;43102;52.014;-0.680;2023-07-31T03:59:00;99630;;;20.34;71.94
57250;BME280;43102;52.014;-0.680;2023-07-31T04:00:00;99630;;;20.34;71.94
57250;BME280;43102;52.014;-0.680;2023-07-31T04:01:00;99624;;;20.30;72.36
57250;BME280;43102;52.014;-0.680;2023-07-31T04:02:00;99624;;;20.30;72.36
57250;BME280;43102;52.014;-0.680;2023-07-31T04:03:00;99624;;;20.30;72.36
57250;BME280;43102;52.014;-0.680;2023-07-31T04:04:00;99624;;;20.30;72.36
57250;BME280;43102;52.014;-0.680;2023-07-31T04:05:00;99624;;;20.30;72.36
57250;BME280;43102;52.014;-0.680;2023-07-31T04:06:00;99616;;;20.33;72.16
57250;BME280;43102;52.014;-0.680;2023-07-31T04:07:00;99616;;;20.33;72.16
57250;BME280;43102;52.014;-0.680;2023-07-31T04:08:00;99616;;;20.33;72.16
57250;BME280;43102;52.014;-0.680;2023-07-31T04:09:00;99616;;;20.33;72.16
57250;BME280;43102;52.014;-0.680;2023-07-31T04:10:00;99616;;;20.33;72.16
57250;BME280;43102;52.014;-0.680;2023-07-31T04:11:00;99616;;;20.33;72.77
57250;BME280;43102;52.014;-0.680;2023-07-31T04:12:00;99616;;;20.33;72.77
57250;BME280;43102;52.014;-0.680;2023-07-31T04:13:00;99616;;;20.33;72.77
57250;BME280;43102;52.014;-0.680;2023-07-31T04:14:00;99616;;;20.33;72.77
57250;BME280;43102;52.014;-0.680;2023-07-31T04:15:00;99616;;;20.33;72.77
57250;BME280;43102;52.014;-0.680;2023-07-31T04:16:00;99619;;;20.31;72.93
57250;BME280;43102;52.014;-0.680;2023-07-31T04:17:00;99619;;;20.31;72.93
57250;BME280;43102;52.014;-0.680;2023-07-31T04:18:00;99619;;;20.31;72.93
57250;BME280;43102;52.014;-0.680;2023-07-31T04:19:00;99619;;;20.31;72.93
57250;BME280;43102;52.014;-0.680;2023-07-31T04:20:00;99619;;;20.31;72.93
57250;BME280;43102;52.014;-0.680;2023-07-31T04:21:00;99616;;;20.38;72.57
57250;BME280;43102;52.014;-0.680;2023-07-31T04:22:00;99616;;;20.38;72.57
57250;BME280;43102;52.014;-0.680;2023-07-31T04:23:00;99616;;;20.38;72.57
57250;BME280;43102;52.014;-0.680;2023-07-31T04:24:00;99616;;;20.38;72.57
57250;BME280;43102;52.014;-0.680;2023-07-31T04:25:00;99616;;;20.38;72.57
57250;BME280;43102;52.014;-0.680;2023-07-31T04:26:00;99612;;;20.36;72.44
57250;BME280;43102;52.014;-0.680;2023-07-31T04:27:00;99612;;;20.36;72.44
57250;BME280;43102;52.014;-0.680;2023-07-31T04:28:00;99612;;;20.36;72.44
57250;BME280;43102;52.014;-0.680;2023-07-31T04:29:00;99612;;;20.36;72.44
57250;BME280;43102;52.014;-0.680;2023-07-31T04:30:00;99612;;;20.36;72.44
57250;BME280;43102;52.014;-0.680;2023-07-31T04:31:00;99599;;;20.41;72.47
57250;BME280;43102;52.014;-0.680;2023-07-31T04:32:00;99599;;;20.41;72.47
57250;BME280;43102;52.014;-0.680;2023-07-31T04:33:00;99599;;;20.41;72.47
57250;BME280;43102;52.014;-0.680;2023-07-31T04:34:00;99599;;;20.41;72.47
57250;BME280;43102;52.014;-0.680;2023-07-31T04:35:00;99599;;;20.41;72.47
57250;BME280;43102;52.014;-0.680;2023-07-31T04:36:00;99596;;;20.40;72.20
57250;BME280;43102;52.014;-0.680;2023-07-31T04:37:00;99596;;;20.40;72.20
57250;BME280;43102;52.014;-0.680;2023-07-31T04:38:00;99596;;;20.40;72.20
57250;BME280;43102;52.014;-0.680;2023-07-31T04:39:00;99596;;;20.40;72.20
57250;BME280;43102;52.014;-0.680;2023-07-31T04:40:00;99596;;;20.40;72.20
57250;BME280;43102;52.014;-0.680;2023-07-31T04:41:00;99605;;;20.44;72.54
57250;BME280;43102;52.014;-0.680;2023-07-31T04:42:00;99605;;;20.44;72.54
57250;BME280;43102;52.014;-0.680;2023-07-31T04:43:00;99605;;;20.44;72.54
57250;BME280;43102;52.014;-0.680;2023-07-31T04:44:00;99605;;;20.44;72.54
57250;BME280;43102;52.014;-0.680;2023-07-31T04:45:00;99605;;;20.44;72.54
57250;BME280;43102;52.014;-0.680;2023-07-31T04:46:00;99614;;;20.45;72.08
57250;BME280;43102;52.014;-0.680;2023-07-31T04:47:00;99614;;;20.45;72.08
57250;BME280;43102;52.014;-0.680;2023-07-31T04:48:00;99614;;;20.45;72.08
57250;BME280;43102;52.014;-0.680;2023-07-31T04:49:00;99614;;;20.45;72.08
57250;BME280;43102;52.014;-0.680;2023-07-31T04:50:00;99614;;;20.45;72.08
57250;BME280;43102;52.014;-0.680;2023-07-31T04:51:00;99609;;;20.36;73.16
57250;BME280;43102;52.014;-0.680;2023-07-31T04:52:00;99609;;;20.36;73.16
57250;BME280;43102;52.014;-0.680;2023-07-31T04:53:00;99609;;;20.36;73.16
57250;BME280;43102;52.014;-0.680;2023-07-31T04:54:00;99609;;;20.36;73.16
57250;BME280;43102;52.014;-0.680;2023-07-31T04:55:00;99609;;;20.36;73.16
57250;BME280;43102;52.014;-0.680;2023-07-31T04:56:00;99617;;;20.31;73.77
57250;BME280;43102;52.014;-0.680;2023-07-31T04:57:00;99617;;;20.31;73.77
57250;BME280;43102;52.014;-0.680;2023-07-31T04:58:00;99617;;;20.31;73.77
57250;BME280;43102;52.014;-0.680;2023-07-31T04:59:00;99617;;;20.31;73.77
57250;BME280;43102;52.014;-0.680;2023-07-31T05:00:00;99617;;;20.31;73.77
57250;BME280;43102;52.014;-0.680;2023-07-31T05:01:00;99617;;;20.37;72.77
57250;BME280;43102;52.014;-0.680;2023-07-31T05:02:00;99617;;;20.37;72.77
57250;BME280;43102;52.014;-0.680;2023-07-31T05:03:00;99617;;;20.37;72.77
57250;BME280;43102;52.014;-0.680;2023-07-31T05:04:00;99617;;;20.37;72.77
57250;BME280;43102;52.014;-0.680;2023-07-31T05:05:00;99617;;;20.37;72.77
57250;BME280;43102;52.014;-0.680;2023-07-31T05:06:00;99613;;;20.36;72.70
57250;BME280;43102;52.014;-0.680;2023-07-31T05:07:00;99613;;;20.36;72.70
57250;BME280;43102;52.014;-0.680;2023-07-31T05:08:00;99613;;;20.36;72.70
57250;BME280;43102;52.014;-0.680;2023-07-31T05:09:00;99613;;;20.36;72.70
57250;BME280;43102;52.014;-0.680;2023-07-31T05:10:00;99613;;;20.36;72.70
57250;BME280;43102;52.014;-0.680;2023-07-31T05:11:00;99607;;;20.34;73.11
57250;BME280;43102;52.014;-0.680;2023-07-31T05:12:00;99607;;;20.34;73.11
57250;BME280;43102;52.014;-0.680;2023-07-31T05:13:00;99607;;;20.34;73.11
57250;BME280;43102;52.014;-0.680;2023-07-31T05:14:00;99607;;;20.34;73.11
57250;BME280;43102;52.014;-0.680;2023-07-31T05:15:00;99607;;;20.34;73.11
57250;BME280;43102;52.014;-0.680;2023-07-31T05:16:00;99604;;;20.34;73.21
57250;BME280;43102;52.014;-0.680;2023-07-31T05:17:00;99604;;;20.34;73.21
57250;BME280;43102;52.014;-0.680;2023-07-31T05:18:00;99604;;;20.34;73.21
57250;BME280;43102;52.014;-0.680;2023-07-31T05:19:00;99604;;;20.34;73.21
57250;BME280;43102;52.014;-0.680;2023-07-31T05:20:00;99604;;;20.34;73.21
57250;BME280;43102;52.014;-0.680;2023-07-31T05:21:00;99603;;;20.32;72.80
57250;BME280;43102;52.014;-0.680;2023-07-31T05:22:00;99603;;;20.32;72.80
57250;BME280;43102;52.014;-0.680;2023-07-31T05:23:00;99603;;;20.32;72.80
57250;BME280;43102;52.014;-0.680;2023-07-31T05:24:00;99603;;;20.32;72.80
57250;BME280;43102;52.014;-0.680;2023-07-31T05:25:00;99603;;;20.32;72.80
57250;BME280;43102;52.014;-0.680;2023-07-31T05:26:07;99614;;;20.32;72.29
57250;BME280;43102;52.014;-0.680;2023-07-31T05:27:00;99614;;;20.32;72.29
57250;BME280;43102;52.014;-0.680;2023-07-31T05:28:00;99614;;;20.32;72.29
57250;BME280;43102;52.014;-0.680;2023-07-31T05:29:00;99614;;;20.32;72.29
57250;BME280;43102;52.014;-0.680;2023-07-31T05:30:00;99614;;;20.32;72.29
57250;BME280;43102;52.014;-0.680;2023-07-31T05:31:00;99615;;;20.34;71.96